Main page
METAR-TAF:

METAR-TAF

Airports :

Orange-Caritat Air Base

Orange, France

latitude: 44-08N, longitude: 004-50E, elevation: 60 m

Current weather observation

The report was made 39 minutes ago, at 19:00 UTC
Wind 5 kt from the South/Southwest
Temperature 28°C
Humidity 51%
Pressure 1015 hPa
Visibility 10 km or more
no clouds below 1500 m and no cumulonimbus

METAR: LFMO 151900Z AUTO 21005KT CAVOK 28/17 Q1015 NOSIG

Time: 21:39 (19:39 UTC)

Forecast

The report was made 5 hours and 39 minutes ago, at 14:00 UTC
Forecast valid from 15 at 15 UTC to 16 at 15 UTC
Wind 2 kt from variable directions
Visibility 10 km or more
no clouds below 1500 m and no cumulonimbus
Temporary
from 15 at 18 UTC to 15 at 21 UTC
Wind 12 kt from the South/Southwest
Temporary
from 16 at 13 UTC to 16 at 15 UTC
Wind 12 kt from the South/Southwest

TAF: LFMO 151400Z 1515/1615 VRB02KT CAVOK TX37/1515Z TN18/1604Z TEMPO 1518/1521 20012KT TEMPO 1613/1615 20012KT

Weather observations and forecasts of more than 4000 airports (METAR and TAF reports).

The available stations are represented by yellow and red dots on the map.

Hover mouse over dot to see the name of the station.

Then click to see weather observations and forecasts.

To change the map : click on the green buttons with a black cross to zoom in, on the green button with a dash to zoom out, or on the green arrows for adjacent maps.


METAR-TAF: